Time;durP1;ratioP1;P1;durP2;ratioP2;P2;SDS_P1;SDS_P2;PMS_P1;PMS_P2;Temp;Humidity;BMP_temperature;BMP_pressure;BME280_temperature;BME280_humidity;BME280_pressure;Samples;Min_cycle;Max_cycle;Signal;HPM_P1;HPM_P2
2021/05/21 00:02:24;;;;;;;9.70;8.47;;;12.00;99.90;;;;;;5067262;28;20589;-51
2021/05/21 00:04:52;;;;;;;11.37;8.77;;;12.00;99.90;;;;;;5053792;28;20289;-49
2021/05/21 00:07:23;;;;;;;9.53;8.50;;;11.90;99.90;;;;;;5048022;28;20909;-50
2021/05/21 00:09:50;;;;;;;9.37;8.47;;;11.90;99.90;;;;;;5048968;28;20247;-50
2021/05/21 00:12:18;;;;;;;10.70;9.00;;;11.90;99.90;;;;;;5067653;28;20245;-49
2021/05/21 00:14:47;;;;;;;9.60;8.60;;;11.90;99.90;;;;;;5057973;28;20239;-49
2021/05/21 00:17:15;;;;;;;9.50;8.47;;;11.90;99.90;;;;;;5047545;28;20648;-49
2021/05/21 00:19:43;;;;;;;9.60;8.50;;;11.80;99.90;;;;;;5046790;28;20774;-50
2021/05/21 00:22:11;;;;;;;10.30;8.47;;;11.80;99.90;;;;;;5047397;28;20292;-49
2021/05/21 00:24:39;;;;;;;8.67;7.77;;;11.80;99.90;;;;;;5047099;28;20241;-50
2021/05/21 00:27:07;;;;;;;9.37;8.20;;;11.80;99.90;;;;;;5047487;28;20620;-49
2021/05/21 00:29:35;;;;;;;9.50;8.50;;;11.80;99.90;;;;;;5046758;28;20269;-50
2021/05/21 00:32:04;;;;;;;9.10;7.77;;;11.80;99.90;;;;;;5043331;28;21725;-50
2021/05/21 00:34:32;;;;;;;10.00;8.63;;;11.70;99.90;;;;;;5046788;28;20246;-49
2021/05/21 00:37:00;;;;;;;9.07;7.73;;;11.70;99.90;;;;;;5047150;28;20249;-50
2021/05/21 00:39:27;;;;;;;9.10;8.17;;;11.70;99.90;;;;;;5046934;28;20700;-50
2021/05/21 00:41:55;;;;;;;8.90;8.00;;;11.60;99.90;;;;;;5029745;28;20314;-50
2021/05/21 00:44:23;;;;;;;9.20;8.30;;;11.70;99.90;;;;;;5043351;28;20623;-49
2021/05/21 00:46:51;;;;;;;10.03;8.33;;;11.60;99.90;;;;;;5046206;28;20322;-50
2021/05/21 00:49:20;;;;;;;8.50;7.70;;;11.60;99.90;;;;;;5047179;28;20239;-50
2021/05/21 00:51:48;;;;;;;10.33;8.43;;;11.60;99.90;;;;;;5046574;28;20408;-49
2021/05/21 00:54:17;;;;;;;9.33;8.10;;;11.60;99.90;;;;;;5047024;28;20238;-49
2021/05/21 00:56:48;;;;;;;10.53;8.57;;;11.50;99.90;;;;;;5064476;28;20257;-49
2021/05/21 00:59:16;;;;;;;10.10;8.93;;;11.50;99.90;;;;;;5066753;28;20242;-49
2021/05/21 01:01:46;;;;;;;10.80;9.30;;;11.50;99.90;;;;;;5066287;28;20312;-49
2021/05/21 01:04:14;;;;;;;12.03;9.37;;;11.40;99.90;;;;;;5066667;28;20250;-49
2021/05/21 01:06:43;;;;;;;10.07;8.50;;;11.40;99.90;;;;;;5060574;28;20238;-50
2021/05/21 01:09:10;;;;;;;9.77;8.77;;;11.40;99.90;;;;;;5046937;28;20261;-49
2021/05/21 01:11:38;;;;;;;9.50;8.50;;;11.40;99.90;;;;;;5045563;28;20253;-49
2021/05/21 01:14:06;;;;;;;9.97;9.00;;;11.40;99.90;;;;;;5050178;28;20759;-49
2021/05/21 01:16:34;;;;;;;10.20;9.07;;;11.40;99.90;;;;;;5041273;28;20239;-51
2021/05/21 01:19:05;;;;;;;11.97;9.77;;;11.40;99.90;;;;;;5030447;28;20314;-49
2021/05/21 01:21:35;;;;;;;11.37;9.97;;;11.40;99.90;;;;;;5046005;28;20256;-49
2021/05/21 01:24:06;;;;;;;10.87;9.17;;;11.30;99.90;;;;;;5049909;28;20610;-49
2021/05/21 01:26:34;;;;;;;13.53;9.93;;;11.30;99.90;;;;;;5050133;28;20325;-48
2021/05/21 01:29:05;;;;;;;10.57;9.47;;;11.30;99.90;;;;;;5050271;28;20241;-51
2021/05/21 01:31:33;;;;;;;11.27;10.07;;;11.30;99.90;;;;;;5049667;28;20585;-50
2021/05/21 01:34:01;;;;;;;11.50;9.80;;;11.20;99.90;;;;;;5049459;28;20234;-49
2021/05/21 01:36:29;;;;;;;11.30;10.00;;;11.20;99.90;;;;;;5049612;28;20782;-49
2021/05/21 01:39:00;;;;;;;11.80;10.10;;;11.20;99.90;;;;;;5049688;28;20252;-50
2021/05/21 01:41:29;;;;;;;12.57;10.47;;;11.20;99.90;;;;;;5047368;28;20245;-50
2021/05/21 01:43:57;;;;;;;12.37;10.90;;;11.20;99.90;;;;;;5042339;28;20258;-49
2021/05/21 01:46:25;;;;;;;11.80;9.73;;;11.20;99.90;;;;;;5049068;28;20235;-49
2021/05/21 01:48:55;;;;;;;11.30;9.90;;;11.10;99.90;;;;;;5042736;28;20296;-50
2021/05/21 01:51:23;;;;;;;11.00;9.90;;;11.10;99.90;;;;;;5049814;28;20242;-49
2021/05/21 01:53:50;;;;;;;12.77;10.87;;;11.10;99.90;;;;;;5045939;28;20292;-51
2021/05/21 01:56:19;;;;;;;11.63;10.03;;;11.00;99.90;;;;;;5064866;28;20237;-49
2021/05/21 01:58:47;;;;;;;12.23;10.43;;;11.10;99.90;;;;;;5043738;28;20769;-49
2021/05/21 02:01:15;;;;;;;11.13;9.90;;;11.10;99.90;;;;;;5042936;28;20789;-49
2021/05/21 02:03:42;;;;;;;12.20;10.37;;;11.10;99.90;;;;;;5049575;28;20776;-49
2021/05/21 02:06:10;;;;;;;12.67;9.70;;;11.10;99.90;;;;;;5049258;28;20230;-49
2021/05/21 02:08:38;;;;;;;13.27;10.63;;;11.10;99.90;;;;;;5049797;28;20241;-49
2021/05/21 02:11:06;;;;;;;10.67;9.57;;;11.10;99.90;;;;;;5049065;28;20238;-49
2021/05/21 02:13:34;;;;;;;11.73;10.37;;;11.10;99.90;;;;;;5049004;28;20269;-49
2021/05/21 02:16:02;;;;;;;11.10;10.00;;;11.10;99.90;;;;;;5049061;28;20636;-49
2021/05/21 02:18:30;;;;;;;11.10;9.33;;;11.10;99.90;;;;;;5049207;28;20254;-50
2021/05/21 02:20:58;;;;;;;11.03;9.37;;;11.10;99.90;;;;;;5048677;28;20239;-50
2021/05/21 02:23:26;;;;;;;10.60;9.50;;;11.10;99.90;;;;;;5048135;28;20242;-49
2021/05/21 02:25:54;;;;;;;11.40;9.57;;;11.00;99.90;;;;;;5049145;28;20232;-49
2021/05/21 02:28:22;;;;;;;10.73;9.63;;;10.90;99.90;;;;;;5049061;28;20605;-51
2021/05/21 02:30:50;;;;;;;11.27;10.00;;;11.00;99.90;;;;;;5058104;28;20237;-50
2021/05/21 02:33:18;;;;;;;11.13;9.00;;;11.00;99.90;;;;;;5069147;28;20233;-49
2021/05/21 02:35:46;;;;;;;13.83;9.90;;;11.00;99.90;;;;;;5058077;28;20248;-49
2021/05/21 02:38:13;;;;;;;12.27;9.87;;;10.90;99.90;;;;;;5047800;28;20270;-49
2021/05/21 02:40:41;;;;;;;10.50;9.20;;;10.90;99.90;;;;;;5047732;28;20571;-49
2021/05/21 02:43:09;;;;;;;10.63;8.67;;;10.90;99.90;;;;;;5047770;28;20627;-49
2021/05/21 02:45:37;;;;;;;11.63;8.77;;;10.90;99.90;;;;;;5048248;28;20283;-49
2021/05/21 02:48:06;;;;;;;11.20;9.17;;;10.90;99.90;;;;;;5048636;28;20258;-49
2021/05/21 02:50:34;;;;;;;9.87;8.67;;;10.90;99.90;;;;;;5048078;28;20242;-50
2021/05/21 02:53:02;;;;;;;10.73;7.70;;;10.90;99.90;;;;;;5048209;28;20234;-49
2021/05/21 02:55:29;;;;;;;9.20;8.17;;;11.00;99.90;;;;;;5041702;28;20238;-49
2021/05/21 02:57:57;;;;;;;11.00;8.93;;;10.90;99.90;;;;;;5028642;28;20234;-49
2021/05/21 03:00:25;;;;;;;11.07;8.53;;;10.90;99.90;;;;;;5034754;28;20291;-49
2021/05/21 03:02:53;;;;;;;10.07;7.97;;;10.90;99.90;;;;;;5048545;28;20244;-49
2021/05/21 03:05:22;;;;;;;9.77;8.70;;;10.90;99.90;;;;;;5041839;28;20249;-49
2021/05/21 03:07:53;;;;;;;9.63;8.07;;;10.90;99.90;;;;;;5068496;28;20316;-49
2021/05/21 03:10:21;;;;;;;8.60;7.77;;;10.90;99.90;;;;;;5061604;28;20345;-50
2021/05/21 03:12:50;;;;;;;10.27;8.20;;;10.90;99.90;;;;;;5048244;28;20247;-50
2021/05/21 03:15:19;;;;;;;8.53;7.63;;;10.90;99.90;;;;;;5050641;28;20776;-49
2021/05/21 03:17:47;;;;;;;9.10;7.70;;;10.90;99.90;;;;;;5048263;28;20547;-49
2021/05/21 03:20:15;;;;;;;13.07;7.50;;;10.90;99.90;;;;;;5052588;28;20237;-51
2021/05/21 03:22:44;;;;;;;8.30;7.33;;;10.90;99.90;;;;;;5047275;28;20317;-50
2021/05/21 03:25:13;;;;;;;8.13;7.33;;;10.90;99.90;;;;;;5033153;28;20260;-49
2021/05/21 03:27:41;;;;;;;8.43;7.17;;;10.90;99.90;;;;;;5048064;28;20772;-49
2021/05/21 03:30:11;;;;;;;7.83;6.77;;;10.90;99.90;;;;;;5033223;28;20226;-50
2021/05/21 03:32:40;;;;;;;9.00;7.50;;;10.90;99.90;;;;;;5047558;28;20241;-49
2021/05/21 03:35:09;;;;;;;9.73;6.83;;;10.90;99.90;;;;;;5045212;28;20244;-49
2021/05/21 03:37:37;;;;;;;8.00;7.20;;;10.90;99.90;;;;;;5047418;28;20242;-50
2021/05/21 03:40:07;;;;;;;9.20;7.07;;;10.80;99.90;;;;;;5041136;28;20532;-49
2021/05/21 03:42:35;;;;;;;7.53;6.50;;;10.80;99.90;;;;;;5047181;28;20240;-51
2021/05/21 03:45:07;;;;;;;7.90;6.57;;;10.80;99.90;;;;;;5052249;28;20244;-49
2021/05/21 03:47:35;;;;;;;6.77;6.07;;;10.80;99.90;;;;;;5068038;28;20288;-49
2021/05/21 03:50:18;;;;;;;6.63;5.90;;;10.90;99.90;;;;;;4348511;28;10002047;-49
2021/05/21 03:52:48;;;;;;;7.87;6.00;;;10.90;99.90;;;;;;2446639;28;10001996;-49
2021/05/21 03:55:19;;;;;;;7.90;6.00;;;10.90;99.90;;;;;;5067480;28;20481;-52
2021/05/21 03:57:47;;;;;;;6.03;5.43;;;11.00;99.90;;;;;;5067735;28;20244;-49
2021/05/21 04:00:19;;;;;;;7.17;5.53;;;11.00;99.90;;;;;;5050681;28;20233;-49
2021/05/21 04:02:50;;;;;;;6.63;5.20;;;11.00;99.90;;;;;;5047407;28;20308;-49
2021/05/21 04:05:18;;;;;;;6.27;5.20;;;11.10;99.90;;;;;;5047122;28;20253;-50
2021/05/21 04:07:48;;;;;;;5.90;5.30;;;11.10;99.90;;;;;;5047434;28;20340;-49
2021/05/21 04:10:17;;;;;;;5.80;5.10;;;11.10;99.90;;;;;;5034044;28;20232;-49
2021/05/21 04:12:45;;;;;;;6.63;5.03;;;11.10;99.90;;;;;;5047129;28;20246;-49
2021/05/21 04:15:14;;;;;;;7.23;5.20;;;11.10;99.90;;;;;;5047141;28;20238;-50
2021/05/21 04:17:42;;;;;;;5.53;4.70;;;11.10;99.90;;;;;;5047261;28;20249;-49
2021/05/21 04:20:12;;;;;;;7.40;4.70;;;11.10;99.90;;;;;;5052805;28;20229;-50
2021/05/21 04:22:40;;;;;;;8.17;4.83;;;11.20;99.90;;;;;;5047033;28;20293;-50
2021/05/21 04:25:10;;;;;;;5.93;4.50;;;11.20;99.90;;;;;;5046824;28;20299;-49
2021/05/21 04:27:38;;;;;;;5.20;4.70;;;11.30;99.90;;;;;;5036858;28;20354;-49
2021/05/21 04:30:07;;;;;;;4.77;4.27;;;11.30;99.90;;;;;;5030962;28;20320;-49
2021/05/21 04:32:35;;;;;;;5.33;4.50;;;11.30;99.90;;;;;;5041328;28;20243;-50
2021/05/21 04:35:05;;;;;;;4.77;4.30;;;11.30;99.90;;;;;;5046542;28;20324;-49
2021/05/21 04:37:33;;;;;;;6.93;4.60;;;11.40;99.90;;;;;;5043163;28;20244;-49
2021/05/21 04:40:01;;;;;;;5.53;4.30;;;11.40;99.90;;;;;;5046371;28;20229;-49
2021/05/21 04:42:43;;;;;;;5.73;4.20;;;11.40;99.90;;;;;;5047056;28;20234;-49
2021/05/21 04:45:17;;;;;;;4.77;4.23;;;11.50;99.90;;;;;;5052832;28;20266;-50
2021/05/21 04:47:45;;;;;;;4.90;4.27;;;11.50;99.90;;;;;;5058799;28;20263;-49
2021/05/21 04:50:13;;;;;;;5.10;4.60;;;11.60;99.90;;;;;;5056025;28;20283;-51
2021/05/21 04:52:41;;;;;;;4.90;4.00;;;11.60;99.90;;;;;;5070857;28;20608;-49
2021/05/21 04:55:11;;;;;;;4.37;3.77;;;11.70;99.90;;;;;;5070859;28;20818;-49
2021/05/21 04:57:39;;;;;;;4.40;3.70;;;11.80;99.90;;;;;;5051344;28;20769;-49
2021/05/21 05:00:09;;;;;;;4.70;3.63;;;11.90;99.90;;;;;;5034671;28;20241;-49
2021/05/21 05:02:37;;;;;;;4.23;3.83;;;12.00;99.90;;;;;;5050695;28;20246;-49
2021/05/21 05:05:07;;;;;;;4.90;3.90;;;12.00;99.90;;;;;;5050559;28;20264;-51
2021/05/21 05:07:35;;;;;;;4.30;3.83;;;12.20;99.90;;;;;;5050569;28;20247;-50
2021/05/21 05:10:04;;;;;;;4.30;3.87;;;12.30;99.90;;;;;;5053908;28;20527;-50
2021/05/21 05:12:32;;;;;;;5.90;3.30;;;12.50;99.90;;;;;;5070686;28;20780;-50
2021/05/21 05:15:00;;;;;;;4.20;3.00;;;12.80;99.90;;;;;;5069862;28;20554;-50
2021/05/21 05:17:28;;;;;;;3.23;2.97;;;13.00;99.90;;;;;;5059491;28;20239;-51
2021/05/21 05:19:56;;;;;;;3.50;3.20;;;13.30;99.90;;;;;;5048395;28;20239;-50
2021/05/21 05:22:24;;;;;;;4.60;2.93;;;13.50;99.90;;;;;;5049779;28;20268;-52
2021/05/21 05:24:53;;;;;;;3.80;2.87;;;13.80;99.90;;;;;;5049220;28;20333;-50
2021/05/21 05:27:20;;;;;;;2.83;2.40;;;13.80;99.90;;;;;;5050139;28;20698;-49
2021/05/21 05:29:48;;;;;;;4.97;2.40;;;13.60;99.90;;;;;;5049075;28;20242;-50
2021/05/21 05:32:16;;;;;;;2.33;2.13;;;13.50;99.90;;;;;;5044233;28;20245;-49
2021/05/21 05:34:45;;;;;;;3.00;2.43;;;13.40;99.90;;;;;;5046847;28;20299;-50
2021/05/21 05:37:13;;;;;;;3.57;2.30;;;13.40;99.90;;;;;;5046410;28;20455;-49
2021/05/21 05:39:41;;;;;;;3.17;2.10;;;13.40;99.90;;;;;;5048829;28;20652;-50
2021/05/21 05:42:08;;;;;;;3.40;2.10;;;13.40;99.90;;;;;;5049494;28;20237;-50
2021/05/21 05:44:36;;;;;;;2.40;2.10;;;13.40;99.90;;;;;;5034009;28;20305;-50
2021/05/21 05:47:04;;;;;;;3.27;1.90;;;13.50;99.90;;;;;;5064851;28;20252;-49
2021/05/21 05:49:32;;;;;;;3.87;2.10;;;13.40;99.90;;;;;;5049390;28;20238;-50
2021/05/21 05:52:01;;;;;;;3.33;2.10;;;13.40;99.90;;;;;;5053633;28;20334;-50
2021/05/21 05:54:29;;;;;;;1.93;1.73;;;13.40;99.90;;;;;;5049516;28;20649;-52
2021/05/21 05:56:57;;;;;;;3.27;1.90;;;13.50;99.90;;;;;;5047222;28;20238;-50
2021/05/21 05:59:26;;;;;;;4.03;1.60;;;13.60;99.90;;;;;;5046513;28;21064;-50
2021/05/21 06:01:54;;;;;;;4.70;1.80;;;13.70;99.90;;;;;;5048908;28;20242;-49
2021/05/21 06:04:22;;;;;;;4.07;1.77;;;13.80;99.90;;;;;;5047665;28;20710;-49
2021/05/21 06:06:51;;;;;;;3.67;1.57;;;13.90;99.90;;;;;;5048711;28;20310;-49
2021/05/21 06:09:19;;;;;;;2.67;1.50;;;13.90;99.90;;;;;;5053849;28;20239;-49
2021/05/21 06:11:52;;;;;;;1.80;1.60;;;13.80;99.90;;;;;;5046125;28;20246;-49
2021/05/21 06:14:20;;;;;;;3.27;1.60;;;13.90;99.90;;;;;;5043409;28;20227;-50
2021/05/21 06:16:47;;;;;;;2.27;1.43;;;13.90;99.90;;;;;;5045136;28;20296;-51
2021/05/21 06:19:15;;;;;;;1.53;1.43;;;13.90;99.90;;;;;;5047478;28;20272;-50
2021/05/21 06:21:43;;;;;;;1.67;1.40;;;13.90;99.90;;;;;;5046877;28;20288;-49
2021/05/21 06:24:14;;;;;;;2.60;1.50;;;14.00;99.90;;;;;;5044721;28;20227;-50
2021/05/21 06:26:54;;;;;;;2.97;1.60;;;14.10;99.90;;;;;;5045115;28;20634;-52
2021/05/21 06:29:22;;;;;;;3.87;1.40;;;14.30;99.90;;;;;;5046757;28;20326;-49
2021/05/21 06:31:50;;;;;;;2.80;1.37;;;14.20;99.90;;;;;;5045646;28;20240;-50
2021/05/21 06:34:17;;;;;;;3.63;1.93;;;14.10;99.90;;;;;;5045835;28;20322;-50
2021/05/21 06:36:45;;;;;;;2.50;1.50;;;14.10;99.90;;;;;;5046651;28;20767;-50
2021/05/21 06:39:13;;;;;;;2.47;1.60;;;14.20;99.90;;;;;;5047509;28;20236;-50
2021/05/21 06:41:41;;;;;;;3.10;1.50;;;14.30;99.90;;;;;;5045524;28;20246;-50
2021/05/21 06:44:10;;;;;;;1.90;1.30;;;14.50;99.90;;;;;;5045158;28;20269;-49
2021/05/21 06:46:37;;;;;;;1.40;1.23;;;14.70;99.90;;;;;;5046881;28;20242;-50
2021/05/21 06:49:11;;;;;;;2.97;1.70;;;15.20;99.90;;;;;;5046139;28;20243;-49
2021/05/21 06:51:39;;;;;;;4.67;1.60;;;15.30;99.90;;;;;;5045955;28;20239;-49
2021/05/21 06:54:07;;;;;;;3.13;1.70;;;15.40;99.90;;;;;;5046063;28;20603;-49
2021/05/21 06:56:36;;;;;;;2.93;1.67;;;15.30;99.90;;;;;;5042480;28;20301;-49
2021/05/21 06:59:04;;;;;;;2.03;1.60;;;15.30;99.90;;;;;;5046993;28;20317;-49
2021/05/21 07:01:34;;;;;;;2.50;1.60;;;15.40;99.90;;;;;;5061824;28;20759;-50
2021/05/21 07:04:03;;;;;;;4.73;1.83;;;15.50;99.90;;;;;;5066269;28;20702;-50
2021/05/21 07:06:33;;;;;;;3.70;1.90;;;15.60;99.90;;;;;;5044964;28;20245;-50
2021/05/21 07:09:03;;;;;;;3.10;1.63;;;16.00;99.90;;;;;;5045797;28;20244;-50
2021/05/21 07:11:32;;;;;;;3.33;1.90;;;16.10;99.90;;;;;;5045721;28;20595;-49
2021/05/21 07:14:00;;;;;;;3.30;1.83;;;16.00;99.90;;;;;;5042365;28;20226;-50
2021/05/21 07:16:28;;;;;;;3.30;1.83;;;15.80;99.90;;;;;;5046097;28;20243;-49
2021/05/21 07:18:57;;;;;;;4.97;2.27;;;15.50;99.90;;;;;;5045688;28;20346;-49
2021/05/21 07:21:27;;;;;;;2.77;1.90;;;15.30;99.90;;;;;;5045011;28;20742;-49
2021/05/21 07:23:55;;;;;;;5.03;2.00;;;15.00;99.90;;;;;;5046337;28;20237;-50
2021/05/21 07:26:25;;;;;;;2.53;2.00;;;14.70;99.90;;;;;;5045379;28;20232;-49
2021/05/21 07:28:53;;;;;;;4.83;2.20;;;14.40;99.90;;;;;;5040182;28;20554;-50
2021/05/21 07:31:26;;;;;;;5.67;2.40;;;14.10;99.90;;;;;;5041093;28;20251;-50
2021/05/21 07:33:54;;;;;;;4.33;2.10;;;13.90;99.90;;;;;;5044093;28;20299;-51
2021/05/21 07:36:23;;;;;;;5.70;2.83;;;13.70;99.90;;;;;;5031472;28;20525;-50
2021/05/21 07:38:51;;;;;;;4.37;2.23;;;13.50;99.90;;;;;;5024828;28;20301;-51
2021/05/21 07:41:22;;;;;;;4.47;2.20;;;13.30;99.90;;;;;;5041910;28;20611;-52
2021/05/21 07:43:50;;;;;;;2.83;1.87;;;13.30;99.90;;;;;;5043703;28;20240;-49
2021/05/21 07:46:18;;;;;;;3.40;1.87;;;13.20;99.90;;;;;;5059480;28;20246;-50
2021/05/21 07:48:46;;;;;;;3.13;1.90;;;13.20;99.90;;;;;;5045745;28;20626;-50
2021/05/21 07:51:14;;;;;;;6.83;2.33;;;13.20;99.90;;;;;;5045266;28;20600;-50
2021/05/21 07:53:43;;;;;;;2.70;1.80;;;13.20;99.90;;;;;;5039876;28;20724;-51
2021/05/21 07:56:14;;;;;;;2.67;1.83;;;13.10;99.90;;;;;;5039690;28;20246;-50
2021/05/21 07:58:42;;;;;;;3.47;2.07;;;13.00;99.90;;;;;;5045989;28;20334;-49
2021/05/21 08:01:10;;;;;;;3.70;2.10;;;13.00;99.90;;;;;;5048562;28;20236;-50
2021/05/21 08:03:38;;;;;;;3.47;1.93;;;13.00;99.90;;;;;;5041252;28;20236;-51
2021/05/21 08:06:06;;;;;;;3.20;2.20;;;13.00;99.90;;;;;;5027525;28;20254;-50
2021/05/21 08:08:34;;;;;;;3.97;2.10;;;13.00;99.90;;;;;;5026066;28;20240;-50
2021/05/21 08:11:03;;;;;;;2.37;1.53;;;13.00;99.90;;;;;;5036865;28;20231;-52
2021/05/21 08:13:40;;;;;;;3.53;1.80;;;13.00;99.90;;;;;;5041948;28;20239;-50
2021/05/21 08:16:12;;;;;;;3.90;1.63;;;13.00;99.90;;;;;;5015629;28;20548;-52
2021/05/21 08:18:41;;;;;;;3.87;1.67;;;13.00;99.90;;;;;;5029506;28;20765;-51
2021/05/21 08:21:08;;;;;;;2.77;1.70;;;13.00;99.90;;;;;;5057099;28;21099;-50
2021/05/21 08:23:37;;;;;;;3.77;1.47;;;13.00;99.90;;;;;;5061635;28;20237;-49
2021/05/21 08:26:07;;;;;;;2.27;1.60;;;13.10;99.90;;;;;;5040464;28;20232;-51
2021/05/21 08:28:35;;;;;;;3.50;1.80;;;13.10;99.90;;;;;;5046574;28;20246;-49
2021/05/21 08:31:04;;;;;;;2.50;1.80;;;13.00;99.90;;;;;;5051044;28;20231;-51
2021/05/21 08:33:33;;;;;;;4.10;2.03;;;13.00;99.90;;;;;;5048785;28;20231;-49
2021/05/21 08:36:00;;;;;;;4.63;1.90;;;12.90;99.90;;;;;;5046702;28;20256;-51
2021/05/21 08:38:28;;;;;;;4.13;1.80;;;12.90;99.90;;;;;;5049541;28;20243;-51
2021/05/21 08:40:57;;;;;;;5.30;2.27;;;12.90;99.90;;;;;;5048961;28;20230;-51
2021/05/21 08:43:26;;;;;;;3.83;2.10;;;12.80;99.90;;;;;;5040596;28;20239;-51
2021/05/21 08:45:54;;;;;;;4.23;1.70;;;13.00;99.90;;;;;;5049331;28;20243;-51
2021/05/21 08:48:22;;;;;;;4.03;1.63;;;13.10;99.90;;;;;;5051139;28;20267;-50
2021/05/21 08:50:53;;;;;;;7.27;2.00;;;13.10;99.90;;;;;;5050216;28;20246;-50
2021/05/21 08:53:20;;;;;;;7.13;2.20;;;13.10;99.90;;;;;;5037970;28;20369;-50
2021/05/21 08:55:48;;;;;;;5.93;2.43;;;13.10;99.90;;;;;;5046797;28;20604;-50
2021/05/21 08:58:16;;;;;;;5.37;1.77;;;13.00;99.90;;;;;;5050490;28;20606;-50
2021/05/21 09:00:45;;;;;;;9.80;2.30;;;13.10;99.90;;;;;;5050072;28;20246;-50
2021/05/21 09:03:20;;;;;;;6.90;1.90;;;13.30;99.90;;;;;;5050285;28;20325;-49
2021/05/21 09:06:14;;;;;;;8.57;2.00;;;13.50;99.90;;;;;;5059776;28;20705;-53
2021/05/21 09:08:46;;;;;;;8.27;2.27;;;13.50;99.90;;;;;;5070278;28;20238;-50
2021/05/21 09:11:27;;;;;;;11.10;2.50;;;13.60;99.90;;;;;;5053022;28;20301;-51
2021/05/21 09:14:02;;;;;;;10.60;2.60;;;13.70;99.90;;;;;;5030425;28;20522;-50
2021/05/21 09:16:33;;;;;;;8.73;2.57;;;13.80;99.90;;;;;;5045838;28;20472;-53
2021/05/21 09:19:11;;;;;;;10.90;2.33;;;13.80;99.90;;;;;;5050363;28;20246;-50
2021/05/21 09:21:51;;;;;;;9.03;2.43;;;13.80;99.90;;;;;;5040102;28;20254;-51
2021/05/21 09:24:23;;;;;;;9.43;2.53;;;13.80;99.90;;;;;;5048300;28;20251;-50
2021/05/21 09:26:52;;;;;;;14.13;2.90;;;13.90;99.90;;;;;;5064983;28;20289;-51
2021/05/21 09:29:43;;;;;;;10.30;2.87;;;14.10;99.90;;;;;;5049872;28;20274;-50
2021/05/21 09:32:21;;;;;;;9.53;2.87;;;14.40;99.90;;;;;;5044159;28;20243;-50
2021/05/21 09:35:06;;;;;;;9.20;2.80;;;15.20;99.90;;;;;;5050847;28;20232;-51
2021/05/21 09:37:35;;;;;;;7.90;2.27;;;16.10;99.90;;;;;;5064388;28;20232;-51
2021/05/21 09:40:17;;;;;;;8.40;2.87;;;16.90;99.90;;;;;;5049313;28;20330;-50
2021/05/21 09:42:53;;;;;;;10.97;2.83;;;17.70;99.90;;;;;;5049399;28;20658;-50
2021/05/21 09:45:30;;;;;;;8.10;2.30;;;18.10;99.90;;;;;;5049339;28;20580;-52
2021/05/21 09:48:02;;;;;;;7.30;2.47;;;18.40;99.90;;;;;;5042296;28;20357;-51
2021/05/21 09:50:39;;;;;;;9.37;2.70;;;18.40;99.90;;;;;;5035985;28;20236;-51
2021/05/21 09:53:13;;;;;;;7.60;2.30;;;17.90;99.90;;;;;;5049880;28;20233;-51
2021/05/21 09:55:45;;;;;;;9.37;2.57;;;18.00;99.90;;;;;;5058034;28;20241;-50
2021/05/21 09:58:28;;;;;;;10.73;2.90;;;18.00;99.90;;;;;;5060228;28;20239;-53
2021/05/21 10:01:12;;;;;;;9.30;2.43;;;18.00;99.90;;;;;;5048351;28;20250;-50
2021/05/21 10:03:43;;;;;;;9.23;2.30;;;18.10;99.90;;;;;;5049222;28;20255;-50
2021/05/21 10:06:12;;;;;;;7.60;2.00;;;18.30;99.90;;;;;;5050540;28;20271;-50
2021/05/21 10:08:42;;;;;;;6.40;2.00;;;18.20;99.90;;;;;;5029623;28;20287;-50
2021/05/21 10:11:10;;;;;;;7.40;2.00;;;18.40;99.90;;;;;;5041535;28;20238;-53
2021/05/21 10:13:42;;;;;;;7.13;2.40;;;18.50;99.90;;;;;;5048971;28;20245;-51
2021/05/21 10:16:11;;;;;;;7.47;1.90;;;18.10;99.90;;;;;;5048969;28;20236;-49
2021/05/21 10:18:44;;;;;;;7.77;1.90;;;18.50;99.90;;;;;;5048121;28;20649;-49
2021/05/21 10:21:14;;;;;;;8.87;2.40;;;18.80;99.90;;;;;;5046137;28;20233;-51
2021/05/21 10:23:46;;;;;;;9.10;2.23;;;19.30;99.90;;;;;;5046718;28;20229;-52
2021/05/21 10:26:17;;;;;;;8.63;2.20;;;19.20;99.90;;;;;;5048039;28;20245;-49
2021/05/21 10:28:49;;;;;;;9.70;2.13;;;18.60;99.90;;;;;;5047494;28;20271;-50
2021/05/21 10:31:19;;;;;;;8.83;2.20;;;18.40;99.90;;;;;;5060760;28;20253;-49
2021/05/21 10:33:49;;;;;;;10.00;2.70;;;17.90;99.90;;;;;;5067365;28;20234;-49
2021/05/21 10:36:35;;;;;;;7.27;2.20;;;17.80;99.90;;;;;;5050937;28;20243;-49
2021/05/21 10:39:23;;;;;;;9.30;2.70;;;17.80;99.90;;;;;;5027443;28;20283;-49
2021/05/21 10:42:21;;;;;;;7.50;2.30;;;18.00;99.90;;;;;;5027680;28;20812;-49
2021/05/21 10:45:14;;;;;;;6.27;2.13;;;18.70;99.90;;;;;;5045375;28;20710;-49
2021/05/21 10:47:45;;;;;;;8.70;2.40;;;18.70;99.90;;;;;;5061985;28;20684;-51
2021/05/21 10:50:20;;;;;;;6.40;2.50;;;19.10;99.90;;;;;;5046297;28;20350;-51
2021/05/21 10:53:07;;;;;;;7.33;2.83;;;19.70;99.90;;;;;;5045101;28;20597;-49
2021/05/21 10:55:54;;;;;;;7.07;1.97;;;19.90;99.90;;;;;;5045607;28;20240;-49
2021/05/21 10:58:29;;;;;;;7.73;2.30;;;20.00;99.90;;;;;;5026919;28;20726;-49
2021/05/21 11:01:18;;;;;;;9.40;2.47;;;19.40;99.90;;;;;;5036694;28;20246;-49
2021/05/21 11:04:08;;;;;;;8.87;2.70;;;19.60;99.90;;;;;;5045941;28;20238;-49
2021/05/21 11:06:52;;;;;;;8.03;2.37;;;19.10;99.90;;;;;;5045572;28;20245;-49
2021/05/21 11:09:23;;;;;;;6.63;2.10;;;18.80;99.90;;;;;;5046380;28;20234;-50
2021/05/21 11:11:57;;;;;;;8.20;2.40;;;18.70;99.90;;;;;;5047183;28;20731;-49
2021/05/21 11:14:34;;;;;;;6.90;2.10;;;18.60;99.90;;;;;;5044409;28;20246;-50
2021/05/21 11:17:13;;;;;;;10.10;2.50;;;18.40;99.90;;;;;;5058915;28;20262;-49
2021/05/21 11:19:49;;;;;;;7.53;2.47;;;17.80;99.90;;;;;;5042871;28;20261;-49
2021/05/21 11:22:30;;;;;;;9.60;2.23;;;17.30;99.90;;;;;;5046996;28;20244;-50
2021/05/21 11:25:01;;;;;;;8.60;2.93;;;16.80;99.90;;;;;;5044063;28;20261;-49
2021/05/21 11:27:31;;;;;;;8.50;2.43;;;16.30;99.90;;;;;;5048138;28;20323;-53
2021/05/21 11:30:05;;;;;;;11.37;2.43;;;16.00;99.90;;;;;;5047035;28;20236;-50
2021/05/21 11:32:33;;;;;;;7.17;2.30;;;15.70;99.90;;;;;;5045525;28;20236;-52
2021/05/21 11:35:01;;;;;;;5.33;1.87;;;15.40;99.90;;;;;;5045150;28;20228;-49
2021/05/21 11:37:31;;;;;;;5.60;1.70;;;15.20;99.90;;;;;;5046208;28;20235;-49
2021/05/21 11:40:03;;;;;;;6.90;2.13;;;15.30;99.90;;;;;;5048789;28;20243;-50
2021/05/21 11:42:31;;;;;;;9.63;3.07;;;15.60;99.90;;;;;;5066222;28;20235;-50
2021/05/21 11:44:59;;;;;;;6.27;2.30;;;15.80;99.90;;;;;;5046341;28;20621;-53
2021/05/21 11:47:30;;;;;;;7.30;2.37;;;15.80;99.90;;;;;;5045796;28;20244;-51
2021/05/21 11:50:00;;;;;;;10.03;2.47;;;15.60;99.90;;;;;;5044953;28;20239;-52
2021/05/21 11:52:29;;;;;;;11.67;2.80;;;15.50;99.90;;;;;;5044743;28;20882;-50
2021/05/21 11:54:59;;;;;;;11.93;2.77;;;15.60;99.90;;;;;;5058084;28;20286;-51
2021/05/21 11:57:27;;;;;;;8.17;2.67;;;15.60;99.90;;;;;;5042638;28;20242;-51
2021/05/21 11:59:56;;;;;;;10.27;2.80;;;15.60;99.90;;;;;;5044193;28;20251;-54
2021/05/21 12:02:25;;;;;;;11.37;2.90;;;15.60;99.90;;;;;;5041818;28;20319;-50
2021/05/21 12:04:53;;;;;;;8.77;2.60;;;15.80;99.90;;;;;;5043967;28;20228;-50
2021/05/21 12:07:23;;;;;;;9.67;2.57;;;16.30;99.90;;;;;;5045110;28;20244;-50
2021/05/21 12:10:00;;;;;;;7.37;2.13;;;16.60;99.90;;;;;;5041495;28;20235;-51
2021/05/21 12:12:30;;;;;;;6.17;2.30;;;16.90;99.90;;;;;;5042861;28;20294;-54
2021/05/21 12:15:09;;;;;;;6.37;2.07;;;16.80;99.90;;;;;;5039903;28;20327;-49
2021/05/21 12:17:38;;;;;;;6.80;2.07;;;16.90;99.90;;;;;;5041147;28;20236;-50
2021/05/21 12:20:08;;;;;;;8.70;3.13;;;16.90;99.90;;;;;;5043799;28;20523;-51
2021/05/21 12:22:39;;;;;;;9.35;2.35;;;17.00;99.90;;;;;;5044011;28;20238;-50
2021/05/21 12:25:19;;;;;;;9.33;2.30;;;17.10;99.90;;;;;;5048291;28;20325;-50
2021/05/21 12:27:47;;;;;;;7.20;2.53;;;17.20;99.90;;;;;;5064516;28;20239;-50
2021/05/21 12:30:16;;;;;;;11.03;2.80;;;17.10;99.90;;;;;;5056096;28;20249;-51
2021/05/21 12:32:45;;;;;;;9.97;2.53;;;17.10;99.90;;;;;;5045467;28;20240;-50
2021/05/21 12:35:16;;;;;;;8.10;2.30;;;17.10;99.90;;;;;;5059196;28;20334;-50
2021/05/21 12:37:46;;;;;;;11.52;3.25;;;17.20;99.90;;;;;;5046132;28;20440;-50
2021/05/21 12:40:17;;;;;;;7.50;2.10;;;17.20;99.90;;;;;;5042929;28;20812;-50
2021/05/21 12:42:50;;;;;;;6.20;2.50;;;17.20;99.90;;;;;;5046247;28;20323;-51
2021/05/21 12:45:18;;;;;;;6.67;2.40;;;17.20;99.90;;;;;;5045009;28;20262;-52
2021/05/21 12:47:47;;;;;;;9.03;2.60;;;17.30;99.90;;;;;;5046879;28;20605;-57
2021/05/21 12:50:17;;;;;;;9.20;2.77;;;17.20;99.90;;;;;;5046053;28;20243;-49
2021/05/21 12:52:56;;;;;;;10.00;3.00;;;17.30;99.90;;;;;;5044761;28;20747;-49
2021/05/21 12:55:25;;;;;;;9.20;2.53;;;17.00;99.90;;;;;;5052036;28;20239;-49
2021/05/21 12:57:57;;;;;;;11.60;2.80;;;16.90;99.90;;;;;;5050698;28;20604;-49
2021/05/21 13:00:26;;;;;;;8.67;2.80;;;16.80;99.90;;;;;;5039057;28;20240;-50